sensor_id;sensor_type;location;lat;lon;timestamp;temperature;humidity
48752;DHT22;34544;48.836;9.174;2023-05-23T00:01:53;17.80;99.90
48752;DHT22;34544;48.836;9.174;2023-05-23T00:04:19;17.70;99.90
48752;DHT22;34544;48.836;9.174;2023-05-23T00:06:45;17.70;99.90
48752;DHT22;34544;48.836;9.174;2023-05-23T00:09:14;17.70;99.90
48752;DHT22;34544;48.836;9.174;2023-05-23T00:11:40;17.70;99.90
48752;DHT22;34544;48.836;9.174;2023-05-23T00:14:13;17.60;99.90
48752;DHT22;34544;48.836;9.174;2023-05-23T00:16:43;17.70;99.90
48752;DHT22;34544;48.836;9.174;2023-05-23T00:19:10;17.60;99.90
48752;DHT22;34544;48.836;9.174;2023-05-23T00:21:36;17.60;99.90
48752;DHT22;34544;48.836;9.174;2023-05-23T00:24:01;17.50;99.90
48752;DHT22;34544;48.836;9.174;2023-05-23T00:26:29;17.50;99.90
48752;DHT22;34544;48.836;9.174;2023-05-23T00:28:54;17.50;99.90
48752;DHT22;34544;48.836;9.174;2023-05-23T00:31:21;17.50;99.90
48752;DHT22;34544;48.836;9.174;2023-05-23T00:33:47;17.40;99.90
48752;DHT22;34544;48.836;9.174;2023-05-23T00:36:12;17.50;99.90
48752;DHT22;34544;48.836;9.174;2023-05-23T00:38:38;17.40;99.90
48752;DHT22;34544;48.836;9.174;2023-05-23T00:41:04;17.40;99.90
48752;DHT22;34544;48.836;9.174;2023-05-23T00:43:31;17.40;99.90
48752;DHT22;34544;48.836;9.174;2023-05-23T00:45:57;17.40;99.90
48752;DHT22;34544;48.836;9.174;2023-05-23T00:48:24;17.40;99.90
48752;DHT22;34544;48.836;9.174;2023-05-23T00:50:50;17.40;99.90
48752;DHT22;34544;48.836;9.174;2023-05-23T00:53:16;17.40;99.90
48752;DHT22;34544;48.836;9.174;2023-05-23T00:55:43;17.40;99.90
48752;DHT22;34544;48.836;9.174;2023-05-23T00:58:09;17.40;99.90
48752;DHT22;34544;48.836;9.174;2023-05-23T01:00:35;17.40;99.90
48752;DHT22;34544;48.836;9.174;2023-05-23T01:03:03;17.50;99.90
48752;DHT22;34544;48.836;9.174;2023-05-23T01:05:29;17.40;99.90
48752;DHT22;34544;48.836;9.174;2023-05-23T01:07:55;17.50;99.90
48752;DHT22;34544;48.836;9.174;2023-05-23T01:10:29;17.50;99.90
48752;DHT22;34544;48.836;9.174;2023-05-23T01:13:36;17.50;99.90
48752;DHT22;34544;48.836;9.174;2023-05-23T01:16:16;17.50;99.90
48752;DHT22;34544;48.836;9.174;2023-05-23T01:21:23;17.50;99.90
48752;DHT22;34544;48.836;9.174;2023-05-23T01:27:00;17.50;99.90
48752;DHT22;34544;48.836;9.174;2023-05-23T01:29:31;17.50;99.90
48752;DHT22;34544;48.836;9.174;2023-05-23T01:31:59;17.50;99.90
48752;DHT22;34544;48.836;9.174;2023-05-23T01:34:25;17.40;99.90
48752;DHT22;34544;48.836;9.174;2023-05-23T01:36:55;17.40;99.90
48752;DHT22;34544;48.836;9.174;2023-05-23T01:39:21;17.40;99.90
48752;DHT22;34544;48.836;9.174;2023-05-23T01:41:49;17.40;99.90
48752;DHT22;34544;48.836;9.174;2023-05-23T01:44:15;17.40;99.90
48752;DHT22;34544;48.836;9.174;2023-05-23T01:46:41;17.40;99.90
48752;DHT22;34544;48.836;9.174;2023-05-23T01:49:11;17.50;99.90
48752;DHT22;34544;48.836;9.174;2023-05-23T01:51:38;17.50;99.90
48752;DHT22;34544;48.836;9.174;2023-05-23T01:54:05;17.50;99.90
48752;DHT22;34544;48.836;9.174;2023-05-23T01:56:31;17.40;99.90
48752;DHT22;34544;48.836;9.174;2023-05-23T01:58:57;17.40;99.90
48752;DHT22;34544;48.836;9.174;2023-05-23T02:01:23;17.50;99.90
48752;DHT22;34544;48.836;9.174;2023-05-23T02:03:50;17.40;99.90
48752;DHT22;34544;48.836;9.174;2023-05-23T02:06:16;17.40;99.90
48752;DHT22;34544;48.836;9.174;2023-05-23T02:08:41;17.40;99.90
48752;DHT22;34544;48.836;9.174;2023-05-23T02:11:07;17.40;99.90
48752;DHT22;34544;48.836;9.174;2023-05-23T02:13:33;17.40;99.90
48752;DHT22;34544;48.836;9.174;2023-05-23T02:15:59;17.40;99.90
48752;DHT22;34544;48.836;9.174;2023-05-23T02:18:25;17.40;99.90
48752;DHT22;34544;48.836;9.174;2023-05-23T02:20:54;17.40;99.90
48752;DHT22;34544;48.836;9.174;2023-05-23T02:23:21;17.40;99.90
48752;DHT22;34544;48.836;9.174;2023-05-23T02:25:47;17.40;99.90
48752;DHT22;34544;48.836;9.174;2023-05-23T02:28:12;17.40;99.90
48752;DHT22;34544;48.836;9.174;2023-05-23T02:30:38;17.50;99.90
48752;DHT22;34544;48.836;9.174;2023-05-23T02:33:05;17.40;99.90
48752;DHT22;34544;48.836;9.174;2023-05-23T02:35:31;17.50;99.90
48752;DHT22;34544;48.836;9.174;2023-05-23T02:37:57;17.50;99.90
48752;DHT22;34544;48.836;9.174;2023-05-23T02:40:23;17.50;99.90
48752;DHT22;34544;48.836;9.174;2023-05-23T02:42:48;17.50;99.90
48752;DHT22;34544;48.836;9.174;2023-05-23T02:45:16;17.50;99.90
48752;DHT22;34544;48.836;9.174;2023-05-23T02:47:42;17.50;99.90
48752;DHT22;34544;48.836;9.174;2023-05-23T02:50:08;17.50;99.90
48752;DHT22;34544;48.836;9.174;2023-05-23T02:52:34;17.50;99.90
48752;DHT22;34544;48.836;9.174;2023-05-23T02:55:00;17.50;99.90
48752;DHT22;34544;48.836;9.174;2023-05-23T02:57:27;17.50;99.90
48752;DHT22;34544;48.836;9.174;2023-05-23T02:59:55;17.60;99.90
48752;DHT22;34544;48.836;9.174;2023-05-23T03:02:21;17.50;99.90
48752;DHT22;34544;48.836;9.174;2023-05-23T03:04:47;17.50;99.90
48752;DHT22;34544;48.836;9.174;2023-05-23T03:07:13;17.50;99.90
48752;DHT22;34544;48.836;9.174;2023-05-23T03:09:39;17.50;99.90
48752;DHT22;34544;48.836;9.174;2023-05-23T03:12:05;17.50;99.90
48752;DHT22;34544;48.836;9.174;2023-05-23T03:14:31;17.50;99.90
48752;DHT22;34544;48.836;9.174;2023-05-23T03:16:57;17.50;99.90
48752;DHT22;34544;48.836;9.174;2023-05-23T03:19:22;17.50;99.90
48752;DHT22;34544;48.836;9.174;2023-05-23T03:21:49;17.50;99.90
48752;DHT22;34544;48.836;9.174;2023-05-23T03:24:17;17.60;99.90
48752;DHT22;34544;48.836;9.174;2023-05-23T03:26:42;17.60;99.90
48752;DHT22;34544;48.836;9.174;2023-05-23T03:29:10;17.60;99.90
48752;DHT22;34544;48.836;9.174;2023-05-23T03:31:36;17.60;99.90
48752;DHT22;34544;48.836;9.174;2023-05-23T03:34:02;17.60;99.90
48752;DHT22;34544;48.836;9.174;2023-05-23T03:36:30;17.60;99.90
48752;DHT22;34544;48.836;9.174;2023-05-23T03:38:58;17.60;99.90
48752;DHT22;34544;48.836;9.174;2023-05-23T03:41:24;17.60;99.90
48752;DHT22;34544;48.836;9.174;2023-05-23T03:43:51;17.60;99.90
48752;DHT22;34544;48.836;9.174;2023-05-23T03:46:16;17.60;99.90
48752;DHT22;34544;48.836;9.174;2023-05-23T03:48:43;17.60;99.90
48752;DHT22;34544;48.836;9.174;2023-05-23T03:51:09;17.60;99.90
48752;DHT22;34544;48.836;9.174;2023-05-23T03:53:35;17.60;99.90
48752;DHT22;34544;48.836;9.174;2023-05-23T03:56:00;17.60;99.90
48752;DHT22;34544;48.836;9.174;2023-05-23T03:58:26;17.50;99.90
48752;DHT22;34544;48.836;9.174;2023-05-23T04:00:57;17.50;99.90
48752;DHT22;34544;48.836;9.174;2023-05-23T04:03:23;17.50;99.90
48752;DHT22;34544;48.836;9.174;2023-05-23T04:05:50;17.50;99.90
48752;DHT22;34544;48.836;9.174;2023-05-23T04:08:16;17.50;99.90
48752;DHT22;34544;48.836;9.174;2023-05-23T04:10:42;17.50;99.90
48752;DHT22;34544;48.836;9.174;2023-05-23T04:13:08;17.50;99.90
48752;DHT22;34544;48.836;9.174;2023-05-23T04:15:34;17.50;99.90
48752;DHT22;34544;48.836;9.174;2023-05-23T04:18:05;17.50;99.90
48752;DHT22;34544;48.836;9.174;2023-05-23T04:20:33;17.50;99.90
48752;DHT22;34544;48.836;9.174;2023-05-23T04:22:59;17.50;99.90
48752;DHT22;34544;48.836;9.174;2023-05-23T04:25:26;17.50;99.90
48752;DHT22;34544;48.836;9.174;2023-05-23T04:28:05;17.60;99.90
48752;DHT22;34544;48.836;9.174;2023-05-23T04:30:31;17.60;99.90
48752;DHT22;34544;48.836;9.174;2023-05-23T04:32:58;17.60;99.90
48752;DHT22;34544;48.836;9.174;2023-05-23T04:35:27;17.70;99.90
48752;DHT22;34544;48.836;9.174;2023-05-23T04:37:54;17.60;99.90
48752;DHT22;34544;48.836;9.174;2023-05-23T04:40:22;17.70;99.90
48752;DHT22;34544;48.836;9.174;2023-05-23T04:43:13;17.60;99.90
48752;DHT22;34544;48.836;9.174;2023-05-23T04:45:47;17.70;99.90
48752;DHT22;34544;48.836;9.174;2023-05-23T04:48:36;17.70;99.90
48752;DHT22;34544;48.836;9.174;2023-05-23T04:51:03;17.70;99.90
48752;DHT22;34544;48.836;9.174;2023-05-23T04:53:33;17.70;99.90
48752;DHT22;34544;48.836;9.174;2023-05-23T04:55:59;17.70;99.90
48752;DHT22;34544;48.836;9.174;2023-05-23T04:58:25;17.70;99.90
48752;DHT22;34544;48.836;9.174;2023-05-23T05:00:55;17.70;99.90
48752;DHT22;34544;48.836;9.174;2023-05-23T05:03:20;17.70;99.90
48752;DHT22;34544;48.836;9.174;2023-05-23T05:05:47;17.80;99.90
48752;DHT22;34544;48.836;9.174;2023-05-23T05:08:14;17.80;99.90
48752;DHT22;34544;48.836;9.174;2023-05-23T05:10:39;17.80;99.90
48752;DHT22;34544;48.836;9.174;2023-05-23T05:13:06;17.90;99.90
48752;DHT22;34544;48.836;9.174;2023-05-23T05:15:41;17.90;99.90
48752;DHT22;34544;48.836;9.174;2023-05-23T05:18:07;17.90;99.90
48752;DHT22;34544;48.836;9.174;2023-05-23T05:20:33;17.90;99.90
48752;DHT22;34544;48.836;9.174;2023-05-23T05:22:59;17.90;99.90
48752;DHT22;34544;48.836;9.174;2023-05-23T05:25:26;18.00;99.90
48752;DHT22;34544;48.836;9.174;2023-05-23T05:27:57;18.00;99.90
48752;DHT22;34544;48.836;9.174;2023-05-23T05:30:25;17.90;99.90
48752;DHT22;34544;48.836;9.174;2023-05-23T05:32:56;18.00;99.90
48752;DHT22;34544;48.836;9.174;2023-05-23T05:35:23;18.00;99.90
48752;DHT22;34544;48.836;9.174;2023-05-23T05:37:49;18.00;99.90
48752;DHT22;34544;48.836;9.174;2023-05-23T05:40:14;17.90;99.90
48752;DHT22;34544;48.836;9.174;2023-05-23T05:42:43;18.00;99.90
48752;DHT22;34544;48.836;9.174;2023-05-23T05:45:09;18.00;99.90
48752;DHT22;34544;48.836;9.174;2023-05-23T05:47:37;18.10;99.90
48752;DHT22;34544;48.836;9.174;2023-05-23T05:50:06;18.20;99.90
48752;DHT22;34544;48.836;9.174;2023-05-23T05:52:34;18.40;99.90
48752;DHT22;34544;48.836;9.174;2023-05-23T05:55:07;18.50;99.90
48752;DHT22;34544;48.836;9.174;2023-05-23T05:57:34;18.50;99.90
48752;DHT22;34544;48.836;9.174;2023-05-23T06:00:00;18.50;99.90
48752;DHT22;34544;48.836;9.174;2023-05-23T06:02:28;18.40;99.90
48752;DHT22;34544;48.836;9.174;2023-05-23T06:04:53;18.50;99.90
48752;DHT22;34544;48.836;9.174;2023-05-23T06:07:19;18.50;99.90
48752;DHT22;34544;48.836;9.174;2023-05-23T06:09:44;18.40;99.90
48752;DHT22;34544;48.836;9.174;2023-05-23T06:12:10;18.40;99.90
48752;DHT22;34544;48.836;9.174;2023-05-23T06:14:36;18.50;99.90
48752;DHT22;34544;48.836;9.174;2023-05-23T06:17:02;18.50;99.90
48752;DHT22;34544;48.836;9.174;2023-05-23T06:19:28;18.60;99.90
48752;DHT22;34544;48.836;9.174;2023-05-23T06:21:55;18.60;99.90
48752;DHT22;34544;48.836;9.174;2023-05-23T06:24:21;18.70;99.90
48752;DHT22;34544;48.836;9.174;2023-05-23T06:26:46;18.70;99.90
48752;DHT22;34544;48.836;9.174;2023-05-23T06:29:12;18.70;99.90
48752;DHT22;34544;48.836;9.174;2023-05-23T06:31:38;18.50;99.90
48752;DHT22;34544;48.836;9.174;2023-05-23T06:34:04;18.40;99.90
48752;DHT22;34544;48.836;9.174;2023-05-23T06:36:29;18.40;99.90
48752;DHT22;34544;48.836;9.174;2023-05-23T06:38:56;18.40;99.90
48752;DHT22;34544;48.836;9.174;2023-05-23T06:41:22;18.30;99.90
48752;DHT22;34544;48.836;9.174;2023-05-23T06:43:51;18.40;99.90
48752;DHT22;34544;48.836;9.174;2023-05-23T06:46:24;18.40;99.90
48752;DHT22;34544;48.836;9.174;2023-05-23T06:48:50;18.40;99.90
48752;DHT22;34544;48.836;9.174;2023-05-23T06:51:15;18.40;99.90
48752;DHT22;34544;48.836;9.174;2023-05-23T06:53:41;18.40;99.90
48752;DHT22;34544;48.836;9.174;2023-05-23T06:56:07;18.40;99.90
48752;DHT22;34544;48.836;9.174;2023-05-23T06:58:42;18.40;99.90
48752;DHT22;34544;48.836;9.174;2023-05-23T07:01:09;18.40;99.90
48752;DHT22;34544;48.836;9.174;2023-05-23T07:03:40;18.40;99.90
48752;DHT22;34544;48.836;9.174;2023-05-23T07:06:08;18.30;99.90
48752;DHT22;34544;48.836;9.174;2023-05-23T07:08:34;18.30;99.90
48752;DHT22;34544;48.836;9.174;2023-05-23T07:11:00;18.20;99.90
48752;DHT22;34544;48.836;9.174;2023-05-23T07:13:46;18.20;99.90
48752;DHT22;34544;48.836;9.174;2023-05-23T07:16:20;18.20;99.90
48752;DHT22;34544;48.836;9.174;2023-05-23T07:18:55;18.20;99.90
48752;DHT22;34544;48.836;9.174;2023-05-23T07:21:22;18.30;99.90
48752;DHT22;34544;48.836;9.174;2023-05-23T07:23:48;18.40;99.90
48752;DHT22;34544;48.836;9.174;2023-05-23T07:26:13;18.50;99.90
48752;DHT22;34544;48.836;9.174;2023-05-23T07:28:45;18.60;99.90
48752;DHT22;34544;48.836;9.174;2023-05-23T07:31:11;18.60;99.90
48752;DHT22;34544;48.836;9.174;2023-05-23T07:33:38;18.50;99.90
48752;DHT22;34544;48.836;9.174;2023-05-23T07:36:04;18.50;99.90
48752;DHT22;34544;48.836;9.174;2023-05-23T07:38:30;18.50;99.90
48752;DHT22;34544;48.836;9.174;2023-05-23T07:40:56;18.50;99.90
48752;DHT22;34544;48.836;9.174;2023-05-23T07:43:21;18.50;99.90
48752;DHT22;34544;48.836;9.174;2023-05-23T07:45:47;18.60;99.90
48752;DHT22;34544;48.836;9.174;2023-05-23T07:48:13;18.70;99.90
48752;DHT22;34544;48.836;9.174;2023-05-23T07:50:39;18.70;99.90
48752;DHT22;34544;48.836;9.174;2023-05-23T07:53:18;18.70;99.90
48752;DHT22;34544;48.836;9.174;2023-05-23T07:55:44;18.80;99.90
48752;DHT22;34544;48.836;9.174;2023-05-23T07:58:12;18.90;99.90
48752;DHT22;34544;48.836;9.174;2023-05-23T08:00:37;19.00;99.90
48752;DHT22;34544;48.836;9.174;2023-05-23T08:03:12;18.90;99.90
48752;DHT22;34544;48.836;9.174;2023-05-23T08:05:49;18.90;99.90
48752;DHT22;34544;48.836;9.174;2023-05-23T08:08:15;18.90;99.90
48752;DHT22;34544;48.836;9.174;2023-05-23T08:10:40;18.80;99.90
48752;DHT22;34544;48.836;9.174;2023-05-23T08:13:11;18.90;99.90
48752;DHT22;34544;48.836;9.174;2023-05-23T08:15:49;18.90;99.90
48752;DHT22;34544;48.836;9.174;2023-05-23T08:18:22;18.90;99.90
48752;DHT22;34544;48.836;9.174;2023-05-23T08:20:48;18.90;99.90
48752;DHT22;34544;48.836;9.174;2023-05-23T08:23:13;18.80;99.90
48752;DHT22;34544;48.836;9.174;2023-05-23T08:25:39;18.90;99.90
48752;DHT22;34544;48.836;9.174;2023-05-23T08:28:05;18.90;99.90
48752;DHT22;34544;48.836;9.174;2023-05-23T08:30:49;18.90;99.90
48752;DHT22;34544;48.836;9.174;2023-05-23T08:33:16;19.00;99.90
48752;DHT22;34544;48.836;9.174;2023-05-23T08:35:45;19.00;99.90
48752;DHT22;34544;48.836;9.174;2023-05-23T08:38:12;18.80;99.90
48752;DHT22;34544;48.836;9.174;2023-05-23T08:40:50;18.90;99.90
48752;DHT22;34544;48.836;9.174;2023-05-23T08:43:21;18.90;99.90
48752;DHT22;34544;48.836;9.174;2023-05-23T08:45:48;18.90;99.90
48752;DHT22;34544;48.836;9.174;2023-05-23T08:48:18;18.80;99.90
48752;DHT22;34544;48.836;9.174;2023-05-23T08:50:49;18.80;99.90
48752;DHT22;34544;48.836;9.174;2023-05-23T08:53:20;19.00;99.90
48752;DHT22;34544;48.836;9.174;2023-05-23T08:55:54;19.00;99.90
48752;DHT22;34544;48.836;9.174;2023-05-23T08:58:27;19.10;99.90
48752;DHT22;34544;48.836;9.174;2023-05-23T09:00:55;19.10;99.90
48752;DHT22;34544;48.836;9.174;2023-05-23T09:03:25;19.10;99.90
48752;DHT22;34544;48.836;9.174;2023-05-23T09:06:11;19.10;99.90
48752;DHT22;34544;48.836;9.174;2023-05-23T09:08:38;19.20;99.90
48752;DHT22;34544;48.836;9.174;2023-05-23T09:11:05;19.40;99.90
48752;DHT22;34544;48.836;9.174;2023-05-23T09:16:09;19.60;99.90
48752;DHT22;34544;48.836;9.174;2023-05-23T09:18:48;19.70;99.90
48752;DHT22;34544;48.836;9.174;2023-05-23T09:21:16;19.80;99.90
48752;DHT22;34544;48.836;9.174;2023-05-23T09:23:54;19.60;99.90
48752;DHT22;34544;48.836;9.174;2023-05-23T09:26:21;19.80;99.90
48752;DHT22;34544;48.836;9.174;2023-05-23T09:28:47;19.80;99.90
48752;DHT22;34544;48.836;9.174;2023-05-23T09:31:13;19.60;99.90
48752;DHT22;34544;48.836;9.174;2023-05-23T09:33:48;19.50;99.90
48752;DHT22;34544;48.836;9.174;2023-05-23T09:36:15;19.50;99.90
48752;DHT22;34544;48.836;9.174;2023-05-23T09:38:43;19.50;99.90
48752;DHT22;34544;48.836;9.174;2023-05-23T09:41:09;19.50;99.90
48752;DHT22;34544;48.836;9.174;2023-05-23T09:43:39;19.50;99.90
48752;DHT22;34544;48.836;9.174;2023-05-23T09:46:12;19.40;99.90
48752;DHT22;34544;48.836;9.174;2023-05-23T09:48:37;19.50;99.90
48752;DHT22;34544;48.836;9.174;2023-05-23T09:51:09;19.60;99.90
48752;DHT22;34544;48.836;9.174;2023-05-23T09:53:35;19.60;99.90
48752;DHT22;34544;48.836;9.174;2023-05-23T09:56:03;19.60;99.90
48752;DHT22;34544;48.836;9.174;2023-05-23T09:58:29;19.60;99.90
48752;DHT22;34544;48.836;9.174;2023-05-23T10:00:59;19.80;99.90
48752;DHT22;34544;48.836;9.174;2023-05-23T10:03:50;19.80;99.90
48752;DHT22;34544;48.836;9.174;2023-05-23T10:06:36;20.00;99.90
48752;DHT22;34544;48.836;9.174;2023-05-23T10:09:05;20.10;99.90
48752;DHT22;34544;48.836;9.174;2023-05-23T10:14:08;20.30;99.90
48752;DHT22;34544;48.836;9.174;2023-05-23T10:17:11;20.30;99.90
48752;DHT22;34544;48.836;9.174;2023-05-23T10:19:46;20.40;99.90
48752;DHT22;34544;48.836;9.174;2023-05-23T10:22:13;20.50;99.90
48752;DHT22;34544;48.836;9.174;2023-05-23T10:24:40;20.60;99.90
48752;DHT22;34544;48.836;9.174;2023-05-23T10:27:06;20.50;99.90
48752;DHT22;34544;48.836;9.174;2023-05-23T10:29:32;20.50;99.90
48752;DHT22;34544;48.836;9.174;2023-05-23T10:31:59;20.60;99.90
48752;DHT22;34544;48.836;9.174;2023-05-23T10:42:07;21.10;99.90
48752;DHT22;34544;48.836;9.174;2023-05-23T10:44:35;21.00;99.90
48752;DHT22;34544;48.836;9.174;2023-05-23T10:47:02;21.10;99.90
48752;DHT22;34544;48.836;9.174;2023-05-23T10:49:41;21.20;99.90
48752;DHT22;34544;48.836;9.174;2023-05-23T10:52:08;21.20;99.90
48752;DHT22;34544;48.836;9.174;2023-05-23T10:54:35;21.10;99.90
48752;DHT22;34544;48.836;9.174;2023-05-23T10:57:04;21.20;99.90
48752;DHT22;34544;48.836;9.174;2023-05-23T10:59:30;21.20;99.90
48752;DHT22;34544;48.836;9.174;2023-05-23T11:01:57;21.40;99.90
48752;DHT22;34544;48.836;9.174;2023-05-23T11:04:26;21.60;99.90
48752;DHT22;34544;48.836;9.174;2023-05-23T11:06:53;21.80;99.90
48752;DHT22;34544;48.836;9.174;2023-05-23T11:09:20;21.80;99.90
48752;DHT22;34544;48.836;9.174;2023-05-23T11:11:53;22.00;99.90
48752;DHT22;34544;48.836;9.174;2023-05-23T11:19:55;22.60;99.90
48752;DHT22;34544;48.836;9.174;2023-05-23T11:22:21;22.70;99.90
48752;DHT22;34544;48.836;9.174;2023-05-23T11:24:53;23.00;99.90
48752;DHT22;34544;48.836;9.174;2023-05-23T11:32:23;22.80;99.90
48752;DHT22;34544;48.836;9.174;2023-05-23T11:34:51;22.80;99.90
48752;DHT22;34544;48.836;9.174;2023-05-23T11:37:18;22.60;99.90
48752;DHT22;34544;48.836;9.174;2023-05-23T11:39:44;22.50;99.90
48752;DHT22;34544;48.836;9.174;2023-05-23T11:42:10;22.40;99.90
48752;DHT22;34544;48.836;9.174;2023-05-23T11:44:35;22.40;99.90
48752;DHT22;34544;48.836;9.174;2023-05-23T11:47:02;22.40;99.90
48752;DHT22;34544;48.836;9.174;2023-05-23T11:49:34;22.50;99.90
48752;DHT22;34544;48.836;9.174;2023-05-23T11:52:01;22.60;99.90
48752;DHT22;34544;48.836;9.174;2023-05-23T11:54:27;22.60;99.90
48752;DHT22;34544;48.836;9.174;2023-05-23T11:56:56;22.60;99.90
48752;DHT22;34544;48.836;9.174;2023-05-23T11:59:23;22.80;99.90
48752;DHT22;34544;48.836;9.174;2023-05-23T12:01:51;22.70;99.90
48752;DHT22;34544;48.836;9.174;2023-05-23T12:04:16;22.80;99.90
48752;DHT22;34544;48.836;9.174;2023-05-23T12:06:45;22.90;99.90
48752;DHT22;34544;48.836;9.174;2023-05-23T12:09:11;22.90;99.90
48752;DHT22;34544;48.836;9.174;2023-05-23T12:11:39;22.90;99.90
48752;DHT22;34544;48.836;9.174;2023-05-23T12:14:13;22.80;99.90
48752;DHT22;34544;48.836;9.174;2023-05-23T12:16:39;23.30;99.90
48752;DHT22;34544;48.836;9.174;2023-05-23T12:21:47;24.30;99.90
48752;DHT22;34544;48.836;9.174;2023-05-23T12:24:19;24.30;99.90
48752;DHT22;34544;48.836;9.174;2023-05-23T12:26:54;24.40;99.90
48752;DHT22;34544;48.836;9.174;2023-05-23T12:29:21;24.50;99.90
48752;DHT22;34544;48.836;9.174;2023-05-23T12:31:52;24.50;99.90
48752;DHT22;34544;48.836;9.174;2023-05-23T12:34:19;24.10;99.90
48752;DHT22;34544;48.836;9.174;2023-05-23T12:36:45;23.80;99.90
48752;DHT22;34544;48.836;9.174;2023-05-23T12:39:13;23.30;99.90
48752;DHT22;34544;48.836;9.174;2023-05-23T12:41:43;23.20;99.90
48752;DHT22;34544;48.836;9.174;2023-05-23T12:44:09;23.50;99.90
48752;DHT22;34544;48.836;9.174;2023-05-23T12:46:35;23.50;99.90
48752;DHT22;34544;48.836;9.174;2023-05-23T12:49:02;23.90;99.90
48752;DHT22;34544;48.836;9.174;2023-05-23T12:51:27;24.20;99.90
48752;DHT22;34544;48.836;9.174;2023-05-23T12:53:53;25.00;99.90
48752;DHT22;34544;48.836;9.174;2023-05-23T12:56:19;25.70;99.90
48752;DHT22;34544;48.836;9.174;2023-05-23T12:58:46;26.50;99.90
48752;DHT22;34544;48.836;9.174;2023-05-23T13:01:13;27.40;99.90
48752;DHT22;34544;48.836;9.174;2023-05-23T13:03:38;28.10;99.90
48752;DHT22;34544;48.836;9.174;2023-05-23T13:06:04;28.40;98.20
48752;DHT22;34544;48.836;9.174;2023-05-23T13:08:31;28.40;97.90
48752;DHT22;34544;48.836;9.174;2023-05-23T13:10:57;27.80;97.70
48752;DHT22;34544;48.836;9.174;2023-05-23T13:13:22;27.20;98.60
48752;DHT22;34544;48.836;9.174;2023-05-23T13:15:48;26.60;99.90
48752;DHT22;34544;48.836;9.174;2023-05-23T13:18:14;26.10;99.50
48752;DHT22;34544;48.836;9.174;2023-05-23T13:20:40;25.60;99.90
48752;DHT22;34544;48.836;9.174;2023-05-23T13:23:06;25.20;99.90
48752;DHT22;34544;48.836;9.174;2023-05-23T13:25:34;24.70;99.90
48752;DHT22;34544;48.836;9.174;2023-05-23T13:28:01;24.10;99.90
48752;DHT22;34544;48.836;9.174;2023-05-23T13:30:27;23.80;99.90
48752;DHT22;34544;48.836;9.174;2023-05-23T13:32:53;23.40;99.90
48752;DHT22;34544;48.836;9.174;2023-05-23T13:35:19;23.20;99.90
48752;DHT22;34544;48.836;9.174;2023-05-23T13:37:46;23.00;99.90
48752;DHT22;34544;48.836;9.174;2023-05-23T13:40:15;22.90;99.90
48752;DHT22;34544;48.836;9.174;2023-05-23T13:42:42;23.00;99.90
48752;DHT22;34544;48.836;9.174;2023-05-23T13:45:08;22.80;99.90
48752;DHT22;34544;48.836;9.174;2023-05-23T13:47:34;22.80;99.90
48752;DHT22;34544;48.836;9.174;2023-05-23T13:50:02;22.90;99.90
48752;DHT22;34544;48.836;9.174;2023-05-23T13:52:28;23.10;99.90
48752;DHT22;34544;48.836;9.174;2023-05-23T13:54:54;23.20;99.90
48752;DHT22;34544;48.836;9.174;2023-05-23T13:57:20;23.50;99.90
48752;DHT22;34544;48.836;9.174;2023-05-23T13:59:45;23.90;99.90
48752;DHT22;34544;48.836;9.174;2023-05-23T14:02:11;24.20;99.90
48752;DHT22;34544;48.836;9.174;2023-05-23T14:04:37;24.30;99.90
48752;DHT22;34544;48.836;9.174;2023-05-23T14:07:02;24.20;99.90
48752;DHT22;34544;48.836;9.174;2023-05-23T14:09:28;24.00;99.90
48752;DHT22;34544;48.836;9.174;2023-05-23T14:11:54;23.70;99.90
48752;DHT22;34544;48.836;9.174;2023-05-23T14:14:19;23.70;99.90
48752;DHT22;34544;48.836;9.174;2023-05-23T14:16:45;23.50;99.90
48752;DHT22;34544;48.836;9.174;2023-05-23T14:19:11;23.50;99.90
48752;DHT22;34544;48.836;9.174;2023-05-23T14:21:36;23.70;99.90
48752;DHT22;34544;48.836;9.174;2023-05-23T14:24:03;24.10;99.90
48752;DHT22;34544;48.836;9.174;2023-05-23T14:26:28;24.60;99.90
48752;DHT22;34544;48.836;9.174;2023-05-23T14:28:54;24.90;99.90
48752;DHT22;34544;48.836;9.174;2023-05-23T14:31:20;25.30;99.90
48752;DHT22;34544;48.836;9.174;2023-05-23T14:33:46;25.60;99.90
48752;DHT22;34544;48.836;9.174;2023-05-23T14:36:14;25.80;99.90
48752;DHT22;34544;48.836;9.174;2023-05-23T14:38:40;26.00;99.90
48752;DHT22;34544;48.836;9.174;2023-05-23T14:41:06;25.90;99.90
48752;DHT22;34544;48.836;9.174;2023-05-23T14:43:31;25.70;99.90
48752;DHT22;34544;48.836;9.174;2023-05-23T14:45:58;25.30;99.90
48752;DHT22;34544;48.836;9.174;2023-05-23T14:48:23;24.80;99.90
48752;DHT22;34544;48.836;9.174;2023-05-23T14:50:49;24.10;99.90
48752;DHT22;34544;48.836;9.174;2023-05-23T14:53:14;23.90;99.90
48752;DHT22;34544;48.836;9.174;2023-05-23T14:55:40;23.90;99.90
48752;DHT22;34544;48.836;9.174;2023-05-23T14:58:06;23.90;99.90
48752;DHT22;34544;48.836;9.174;2023-05-23T15:00:32;24.00;99.90
48752;DHT22;34544;48.836;9.174;2023-05-23T15:02:57;24.10;99.90
48752;DHT22;34544;48.836;9.174;2023-05-23T15:05:23;23.90;99.90
48752;DHT22;34544;48.836;9.174;2023-05-23T15:07:49;23.70;99.90
48752;DHT22;34544;48.836;9.174;2023-05-23T15:10:15;23.50;99.90
48752;DHT22;34544;48.836;9.174;2023-05-23T15:12:42;23.30;99.90
48752;DHT22;34544;48.836;9.174;2023-05-23T15:15:08;23.10;99.90
48752;DHT22;34544;48.836;9.174;2023-05-23T15:17:37;23.00;99.90
48752;DHT22;34544;48.836;9.174;2023-05-23T15:20:03;22.90;99.90
48752;DHT22;34544;48.836;9.174;2023-05-23T15:22:30;22.90;99.90
48752;DHT22;34544;48.836;9.174;2023-05-23T15:24:57;22.80;99.90
48752;DHT22;34544;48.836;9.174;2023-05-23T15:27:24;23.10;99.90
48752;DHT22;34544;48.836;9.174;2023-05-23T15:29:50;23.20;99.90
48752;DHT22;34544;48.836;9.174;2023-05-23T15:32:16;23.20;99.90
48752;DHT22;34544;48.836;9.174;2023-05-23T15:34:41;23.10;99.90
48752;DHT22;34544;48.836;9.174;2023-05-23T15:37:08;23.20;99.90
48752;DHT22;34544;48.836;9.174;2023-05-23T15:39:33;23.80;99.90
48752;DHT22;34544;48.836;9.174;2023-05-23T15:42:00;24.50;99.90
48752;DHT22;34544;48.836;9.174;2023-05-23T15:44:25;25.10;99.90
48752;DHT22;34544;48.836;9.174;2023-05-23T15:46:51;25.60;99.90
48752;DHT22;34544;48.836;9.174;2023-05-23T15:49:18;26.00;99.90
48752;DHT22;34544;48.836;9.174;2023-05-23T15:51:46;26.50;99.70
48752;DHT22;34544;48.836;9.174;2023-05-23T15:54:13;26.70;99.20
48752;DHT22;34544;48.836;9.174;2023-05-23T15:56:39;27.00;99.20
48752;DHT22;34544;48.836;9.174;2023-05-23T15:59:04;27.20;98.70
48752;DHT22;34544;48.836;9.174;2023-05-23T16:01:30;27.10;97.90
48752;DHT22;34544;48.836;9.174;2023-05-23T16:03:57;27.10;98.00
48752;DHT22;34544;48.836;9.174;2023-05-23T16:06:23;26.70;98.10